SBOSBO JTR / LGSR
Speedbird OnlineSpeedbird Online JTR / LGSR

Santorini Airport
11:38 31°C

Location Thira, Greece
Latitude: 36.399200439453125
Longitude: 25.479299545288086
Local Time 11:38 on 18 Jul 2024
UTC +3 hours (Europe/Athens)
Currency £1 equals EUR 1.19
METAR LGSR 180820Z 34011KT CAVOK 31/19 Q1008
TAF TAF LGSR 180500Z 1806/1906 33012KT CAVOK TEMPO 1812/1820 33015G25KT
Weather As Of 18 Jul 2024 11:38
Description Clear sky
Wind 20 km/h from North (340°)
Cloud Cover 0%
Precipitation Rain: none, Snow: none
Sunrise 06:13
Sunset 20:34
NOTAM 10 active NOTAM
Rotations During the last 90 days there were
83 flights from LHR
37 flights from LGW
1 flights from JTR
1 flights from ATH
81 flights to LHR
37 flights to LGW
1 flights to JTR
Web Wikipedia
Codes IATA: JTR
ICAO: LGSR
Altitude 39 Meter / 127 Feet
Distance 2,610 KM / 1,622 Miles
from London.
Runways
RunwayLength (m)Surface
152125Asphalt
16R0UNK
332125Asphalt
34L0UNK
Radio
TypeDescriptionFrequency
A/GRDO563.7
APPAPP118.05
TWRTWR118.05
Live ATC



Support Speedbird Online

© 2017-2024 Speedbird Online